createdAt,value
2023-09-26T00:00:55.393Z,64321.05
2023-09-26T00:01:57.474Z,64305.06
2023-09-26T00:02:59.670Z,64297.66
2023-09-26T00:04:01.686Z,64310.36
2023-09-26T00:05:04.863Z,64295.24
2023-09-26T00:06:18.602Z,64293.90
2023-09-26T00:07:20.608Z,64306.94
2023-09-26T00:08:22.997Z,64295.01
2023-09-26T00:09:24.999Z,64289.59
2023-09-26T00:10:27.995Z,64300.09
2023-09-26T00:11:30.590Z,64293.79
2023-09-26T00:12:34.342Z,64298.32
2023-09-26T00:13:36.259Z,64288.60
2023-09-26T00:14:38.728Z,64294.90
2023-09-26T00:15:41.423Z,64292.25
2023-09-26T00:16:43.716Z,64291.25
2023-09-26T00:17:46.151Z,64298.75
2023-09-26T00:18:48.146Z,64295.01
2023-09-26T00:19:50.274Z,64300.09
2023-09-26T00:20:52.393Z,64297.89
2023-09-26T00:21:54.367Z,64300.41
2023-09-26T00:22:57.318Z,64298.75
2023-09-26T00:23:59.530Z,64291.79
2023-09-26T00:25:01.626Z,64302.07
2023-09-26T00:26:04.739Z,64300.54
2023-09-26T00:27:06.662Z,64295.67
2023-09-26T00:28:08.641Z,64302.07
2023-09-26T00:29:10.603Z,64298.32
2023-09-26T00:30:13.356Z,64302.07
2023-09-26T00:31:15.491Z,64291.70
2023-09-26T00:32:17.605Z,64287.82
2023-09-26T00:33:19.681Z,64282.43
2023-09-26T00:34:21.753Z,64286.17
2023-09-26T00:35:24.579Z,64272.38
2023-09-26T00:36:26.797Z,64257.60
2023-09-26T00:37:29.000Z,64264.13
2023-09-26T00:38:31.169Z,64269.09
2023-09-26T00:39:35.671Z,64274.15
2023-09-26T00:40:40.977Z,64274.04
2023-09-26T00:41:44.040Z,64274.70
2023-09-26T00:42:50.697Z,64263.46
2023-09-26T00:43:54.330Z,64256.96
2023-09-26T00:44:56.408Z,64250.77
2023-09-26T00:46:02.432Z,64245.38
2023-09-26T00:47:05.481Z,64257.95
2023-09-26T00:48:07.832Z,64253.08
2023-09-26T00:49:10.890Z,64258.16
2023-09-26T00:50:14.285Z,64252.65
2023-09-26T00:51:16.580Z,64249.55
2023-09-26T00:52:19.391Z,64262.47
2023-09-26T00:53:22.308Z,64248.12
2023-09-26T00:54:24.573Z,64248.12
2023-09-26T00:55:27.374Z,64249.56
2023-09-26T00:56:30.742Z,64251.33
2023-09-26T00:57:33.416Z,64261.24
2023-09-26T00:58:36.852Z,64261.81
2023-09-26T00:59:39.239Z,64264.13
2023-09-26T01:00:41.806Z,64264.67
2023-09-26T01:01:44.408Z,64261.47
2023-09-26T01:02:46.589Z,64260.91
2023-09-26T01:03:48.828Z,64259.70
2023-09-26T01:04:52.031Z,64265.12
2023-09-26T01:05:55.112Z,64263.46
2023-09-26T01:06:58.002Z,64267.86
2023-09-26T01:07:59.987Z,64267.32
2023-09-26T01:09:02.006Z,64261.90
2023-09-26T01:10:05.904Z,64264.55
2023-09-26T01:11:08.333Z,64263.56
2023-09-26T01:12:10.689Z,64270.09
2023-09-26T01:13:13.078Z,64260.48
2023-09-26T01:14:15.312Z,64268.43
2023-09-26T01:15:37.796Z,64270.30
2023-09-26T01:16:40.528Z,64268.98
2023-09-26T01:17:42.571Z,64275.15
2023-09-26T01:18:46.577Z,64274.60
2023-09-26T01:19:49.153Z,64272.83
2023-09-26T01:20:52.663Z,64260.15
2023-09-26T01:21:54.795Z,64261.90
2023-09-26T01:22:57.598Z,64266.11
2023-09-26T01:24:00.573Z,64266.11
2023-09-26T01:25:02.901Z,64265.78
2023-09-26T01:26:05.645Z,64266.77
2023-09-26T01:27:07.568Z,64276.69
2023-09-26T01:28:11.048Z,64257.95
2023-09-26T01:29:13.482Z,64268.09
2023-09-26T01:30:20.004Z,64264.13
2023-09-26T01:31:22.223Z,64242.61
2023-09-26T01:32:24.296Z,64256.30
2023-09-26T01:33:26.513Z,64261.24
2023-09-26T01:34:28.464Z,64260.61
2023-09-26T01:35:32.193Z,64268.98
2023-09-26T01:36:34.648Z,64274.04
2023-09-26T01:37:36.561Z,64278.00
2023-09-26T01:38:38.599Z,64268.09
2023-09-26T01:39:40.553Z,64271.38
2023-09-26T01:40:42.769Z,64281.77
2023-09-26T01:41:44.680Z,64289.39
2023-09-26T01:42:46.729Z,64291.14
2023-09-26T01:43:48.998Z,64290.80
2023-09-26T01:44:51.169Z,64278.91
2023-09-26T01:45:55.202Z,64280.00
2023-09-26T01:46:58.652Z,64284.08
2023-09-26T01:48:02.316Z,64286.62
2023-09-26T01:49:04.690Z,64288.48
2023-09-26T01:50:08.986Z,64253.74
2023-09-26T01:51:12.012Z,64267.86
2023-09-26T01:52:13.972Z,64275.15
2023-09-26T01:53:16.333Z,64264.13
2023-09-26T01:54:18.269Z,64271.95
2023-09-26T01:55:22.732Z,64277.34
2023-09-26T01:56:26.040Z,64260.81
2023-09-26T01:57:27.933Z,64270.09
2023-09-26T01:58:29.877Z,64269.09
2023-09-26T01:59:34.042Z,64276.14
2023-09-26T02:00:36.193Z,64283.31
2023-09-26T02:01:38.222Z,64261.90
2023-09-26T02:02:41.507Z,64265.87
2023-09-26T02:03:43.807Z,64276.14
2023-09-26T02:04:46.028Z,64258.59
2023-09-26T02:05:48.335Z,64265.33
2023-09-26T02:06:50.570Z,64276.48
2023-09-26T02:07:52.531Z,64276.80
2023-09-26T02:08:54.672Z,64281.11
2023-09-26T02:09:57.704Z,64279.00
2023-09-26T02:11:00.321Z,64275.60
2023-09-26T02:12:02.375Z,64282.22
2023-09-26T02:13:04.721Z,64278.46
2023-09-26T02:14:06.887Z,64272.49
2023-09-26T02:15:10.561Z,64279.00
2023-09-26T02:16:13.676Z,64271.18
2023-09-26T02:17:15.787Z,64251.43
2023-09-26T02:18:17.783Z,64258.59
2023-09-26T02:19:20.052Z,64258.05
2023-09-26T02:20:22.567Z,64251.99
2023-09-26T02:21:24.516Z,64243.60
2023-09-26T02:22:26.483Z,64242.52
2023-09-26T02:23:28.592Z,64256.30
2023-09-26T02:24:30.557Z,64261.24
2023-09-26T02:25:32.616Z,64257.60
2023-09-26T02:26:35.060Z,64253.20
2023-09-26T02:27:38.997Z,64258.16
2023-09-26T02:28:41.232Z,64260.81
2023-09-26T02:29:43.138Z,64258.16
2023-09-26T02:30:46.255Z,64259.70
2023-09-26T02:31:48.413Z,64267.86
2023-09-26T02:32:51.071Z,64270.09
2023-09-26T02:33:54.193Z,64270.09
2023-09-26T02:34:56.168Z,64272.49
2023-09-26T02:35:58.089Z,64268.09
2023-09-26T02:37:00.260Z,64260.91
2023-09-26T02:38:02.608Z,64254.85
2023-09-26T02:39:04.894Z,64239.30
2023-09-26T02:40:13.677Z,64250.22
2023-09-26T02:41:15.743Z,64244.92
2023-09-26T02:42:17.772Z,64253.53
2023-09-26T02:43:19.783Z,64259.70
2023-09-26T02:44:21.792Z,64246.91
2023-09-26T02:45:24.478Z,64252.54
2023-09-26T02:46:26.585Z,64259.04
2023-09-26T02:47:29.343Z,64256.51
2023-09-26T02:48:31.375Z,64265.66
2023-09-26T02:49:33.385Z,64265.66
2023-09-26T02:50:35.501Z,64268.98
2023-09-26T02:51:37.543Z,64265.33
2023-09-26T02:52:43.271Z,64266.00
2023-09-26T02:53:45.635Z,64253.74
2023-09-26T02:54:47.891Z,64264.13
2023-09-26T02:55:49.936Z,64266.32
2023-09-26T02:56:52.653Z,64269.63
2023-09-26T02:57:54.843Z,64267.53
2023-09-26T02:58:56.971Z,64266.87
2023-09-26T02:59:59.739Z,64268.09
2023-09-26T03:01:03.048Z,64267.32
2023-09-26T03:02:05.266Z,64269.18
2023-09-26T03:03:08.635Z,64273.61
2023-09-26T03:04:10.908Z,64274.60
2023-09-26T03:05:14.005Z,64274.70
2023-09-26T03:06:16.445Z,64255.40
2023-09-26T03:07:19.395Z,64270.75
2023-09-26T03:08:21.782Z,64263.67
2023-09-26T03:09:24.349Z,64256.30
2023-09-26T03:10:26.671Z,64270.09
2023-09-26T03:11:29.925Z,64276.25
2023-09-26T03:12:31.976Z,64260.91
2023-09-26T03:13:34.037Z,64267.98
2023-09-26T03:14:36.229Z,64256.96
2023-09-26T03:15:38.693Z,64260.81
2023-09-26T03:16:41.314Z,64270.09
2023-09-26T03:17:43.693Z,64278.91
2023-09-26T03:18:45.707Z,64276.80
2023-09-26T03:19:47.824Z,64276.14
2023-09-26T03:20:49.894Z,64280.66
2023-09-26T03:21:52.561Z,64280.66
2023-09-26T03:22:54.643Z,64281.22
2023-09-26T03:23:56.875Z,64284.42
2023-09-26T03:24:59.045Z,64281.32
2023-09-26T03:26:01.265Z,64277.80
2023-09-26T03:27:03.331Z,64280.56
2023-09-26T03:28:05.760Z,64280.56
2023-09-26T03:29:07.755Z,64273.61
2023-09-26T03:30:10.848Z,64280.00
2023-09-26T03:31:12.940Z,64270.84
2023-09-26T03:32:15.414Z,64281.88
2023-09-26T03:33:18.663Z,64282.88
2023-09-26T03:34:20.622Z,64244.71
2023-09-26T03:35:22.764Z,64287.82
2023-09-26T03:36:25.373Z,64292.70
2023-09-26T03:37:27.435Z,64297.76
2023-09-26T03:38:31.279Z,64297.21
2023-09-26T03:39:33.221Z,64296.01
2023-09-26T03:40:36.158Z,64294.45
2023-09-26T03:41:38.277Z,64293.24
2023-09-26T03:42:41.409Z,64294.45
2023-09-26T03:43:44.627Z,64291.04
2023-09-26T03:44:47.094Z,64290.14
2023-09-26T03:45:49.101Z,64299.86
2023-09-26T03:46:51.490Z,64295.01
2023-09-26T03:47:53.668Z,64294.90
2023-09-26T03:48:57.588Z,64289.93
2023-09-26T03:50:01.366Z,64268.98
2023-09-26T03:51:12.796Z,64255.19
2023-09-26T03:52:15.017Z,64258.71
2023-09-26T03:53:17.219Z,64272.95
2023-09-26T03:54:20.053Z,64274.26
2023-09-26T03:55:22.153Z,64283.31
2023-09-26T03:56:24.384Z,64283.42
2023-09-26T03:57:26.989Z,64293.69
2023-09-26T03:58:29.561Z,64293.69
2023-09-26T03:59:31.938Z,64289.93
2023-09-26T04:00:34.454Z,64293.24
2023-09-26T04:01:36.551Z,64293.45
2023-09-26T04:02:38.877Z,64291.70
2023-09-26T04:03:44.399Z,64292.36
2023-09-26T04:04:46.565Z,64293.36
2023-09-26T04:05:52.305Z,64302.07
2023-09-26T04:06:54.678Z,64297.21
2023-09-26T04:07:56.790Z,64295.67
2023-09-26T04:08:59.406Z,64290.59
2023-09-26T04:10:01.328Z,64291.25
2023-09-26T04:11:03.543Z,64274.60
2023-09-26T04:12:06.417Z,64291.04
2023-09-26T04:13:08.865Z,64286.40
2023-09-26T04:14:10.893Z,64289.05
2023-09-26T04:15:12.840Z,64298.32
2023-09-26T04:16:15.283Z,64306.06
2023-09-26T04:17:18.259Z,64303.40
2023-09-26T04:18:21.103Z,64311.48
2023-09-26T04:19:23.363Z,64307.71
2023-09-26T04:20:36.970Z,64311.03
2023-09-26T04:21:29.774Z,64304.52
2023-09-26T04:22:31.823Z,64308.26
2023-09-26T04:23:34.482Z,64303.95
2023-09-26T04:24:36.413Z,64299.98
2023-09-26T04:25:38.456Z,64299.41
2023-09-26T04:26:40.842Z,64300.09
2023-09-26T04:27:42.767Z,64309.37
2023-09-26T04:28:46.168Z,64303.95
2023-09-26T04:29:48.292Z,64309.37
2023-09-26T04:30:51.824Z,64312.23
2023-09-26T04:31:53.927Z,64320.84
2023-09-26T04:32:56.600Z,64327.92
2023-09-26T04:33:59.044Z,64303.29
2023-09-26T04:35:01.372Z,64310.03
2023-09-26T04:36:03.989Z,64315.99
2023-09-26T04:37:06.150Z,64322.16
2023-09-26T04:38:08.443Z,64321.17
2023-09-26T04:39:10.521Z,64321.96
2023-09-26T04:40:13.457Z,64322.16
2023-09-26T04:41:15.766Z,64322.71
2023-09-26T04:42:17.659Z,64325.48
2023-09-26T04:43:19.640Z,64320.51
2023-09-26T04:44:21.627Z,64315.54
2023-09-26T04:45:24.669Z,64316.65
2023-09-26T04:46:27.284Z,64313.77
2023-09-26T04:47:29.423Z,64321.51
2023-09-26T04:48:31.818Z,64320.17
2023-09-26T04:49:34.325Z,64315.54
2023-09-26T04:50:36.800Z,64319.19
2023-09-26T04:51:39.291Z,64319.85
2023-09-26T04:52:41.283Z,64325.93
2023-09-26T04:53:43.722Z,64327.02
2023-09-26T04:54:46.013Z,64333.43
2023-09-26T04:55:47.941Z,64330.45
2023-09-26T04:56:51.640Z,64329.34
2023-09-26T04:57:53.678Z,64338.73
2023-09-26T04:58:55.866Z,64339.61
2023-09-26T04:59:57.789Z,64327.79
2023-09-26T05:01:04.845Z,64332.10
2023-09-26T05:02:07.069Z,64331.99
2023-09-26T05:03:09.198Z,64346.78
2023-09-26T05:04:11.573Z,64345.78
2023-09-26T05:05:13.935Z,64346.33
2023-09-26T05:06:16.204Z,64356.81
2023-09-26T05:07:18.176Z,64345.78
2023-09-26T05:08:20.265Z,64340.93
2023-09-26T05:09:23.420Z,64351.95
2023-09-26T05:10:26.536Z,64357.27
2023-09-26T05:11:28.633Z,64361.23
2023-09-26T05:12:30.882Z,64371.63
2023-09-26T05:13:33.080Z,64376.03
2023-09-26T05:14:35.191Z,64372.38
2023-09-26T05:15:37.745Z,64378.35
2023-09-26T05:16:40.137Z,64381.55
2023-09-26T05:17:52.380Z,64370.18
2023-09-26T05:18:54.749Z,64382.21
2023-09-26T05:19:56.818Z,64356.38
2023-09-26T05:21:09.298Z,64376.24
2023-09-26T05:22:11.917Z,64383.97
2023-09-26T05:23:14.762Z,64381.75
2023-09-26T05:24:17.662Z,64374.04
2023-09-26T05:25:19.983Z,64377.89
2023-09-26T05:26:22.372Z,64377.35
2023-09-26T05:27:24.292Z,64367.32
2023-09-26T05:28:26.272Z,64373.49
2023-09-26T05:29:28.283Z,64376.03
2023-09-26T05:30:31.160Z,64368.52
2023-09-26T05:31:33.419Z,64370.06
2023-09-26T05:32:36.380Z,64372.72
2023-09-26T05:33:38.418Z,64364.75
2023-09-26T05:34:40.431Z,64351.95
2023-09-26T05:35:42.373Z,64372.72
2023-09-26T05:36:44.632Z,64363.89
2023-09-26T05:37:46.647Z,64361.89
2023-09-26T05:38:49.455Z,64359.69
2023-09-26T05:39:53.998Z,64364.66
2023-09-26T05:40:56.256Z,64365.21
2023-09-26T05:41:58.170Z,64360.78
2023-09-26T05:43:00.301Z,64361.89
2023-09-26T05:44:02.493Z,64374.04
2023-09-26T05:45:09.357Z,64376.24
2023-09-26T05:46:11.536Z,64383.20
2023-09-26T05:47:13.571Z,64375.14
2023-09-26T05:48:16.700Z,64388.18
2023-09-26T05:49:19.985Z,64383.97
2023-09-26T05:50:22.226Z,64365.86
2023-09-26T05:51:24.400Z,64376.24
2023-09-26T05:52:26.454Z,64381.11
2023-09-26T05:53:30.596Z,64373.83
2023-09-26T05:54:33.234Z,64381.00
2023-09-26T05:55:35.451Z,64375.69
2023-09-26T05:56:37.791Z,64367.41
2023-09-26T05:57:40.519Z,64371.63
2023-09-26T05:58:42.610Z,64356.92
2023-09-26T05:59:44.780Z,64372.92
2023-09-26T06:00:47.401Z,64382.32
2023-09-26T06:01:49.608Z,64369.52
2023-09-26T06:02:52.835Z,64361.69
2023-09-26T06:03:55.399Z,64361.78
2023-09-26T06:04:58.031Z,64354.72
2023-09-26T06:06:03.330Z,64359.69
2023-09-26T06:07:05.410Z,64376.03
2023-09-26T06:08:07.476Z,64359.69
2023-09-26T06:09:09.487Z,64361.89
2023-09-26T06:10:12.105Z,64349.55
2023-09-26T06:11:14.245Z,64350.30
2023-09-26T06:12:16.163Z,64361.89
2023-09-26T06:13:18.340Z,64370.72
2023-09-26T06:14:20.350Z,64371.38
2023-09-26T06:15:23.524Z,64382.32
2023-09-26T06:16:26.587Z,64376.80
2023-09-26T06:17:28.822Z,64390.04
2023-09-26T06:18:32.686Z,64374.58
2023-09-26T06:19:34.880Z,64388.38
2023-09-26T06:20:37.046Z,64395.46
2023-09-26T06:21:38.942Z,64382.86
2023-09-26T06:22:41.250Z,64373.83
2023-09-26T06:23:45.396Z,64373.83
2023-09-26T06:24:47.768Z,64371.63
2023-09-26T06:26:00.246Z,64366.41
2023-09-26T06:27:02.490Z,64372.92
2023-09-26T06:28:05.308Z,64378.46
2023-09-26T06:29:07.781Z,64380.66
2023-09-26T06:30:11.481Z,64392.26
2023-09-26T06:31:13.606Z,64397.21
2023-09-26T06:32:16.133Z,64388.95
2023-09-26T06:33:18.551Z,64390.38
2023-09-26T06:34:20.655Z,64393.92
2023-09-26T06:35:23.552Z,64405.95
2023-09-26T06:36:27.940Z,64403.63
2023-09-26T06:37:29.907Z,64412.60
2023-09-26T06:38:31.939Z,64426.49
2023-09-26T06:39:34.358Z,64437.00
2023-09-26T06:40:36.504Z,64404.40
2023-09-26T06:41:38.529Z,64429.26
2023-09-26T06:42:40.977Z,64422.54
2023-09-26T06:43:42.975Z,64425.29
2023-09-26T06:44:45.025Z,64408.29
2023-09-26T06:45:46.971Z,64380.12
2023-09-26T06:46:49.233Z,64403.84
2023-09-26T06:47:51.302Z,64419.88
2023-09-26T06:48:53.721Z,64418.77
2023-09-26T06:49:56.198Z,64411.69
2023-09-26T06:51:00.179Z,64410.49
2023-09-26T06:52:04.878Z,64422.43
2023-09-26T06:53:06.929Z,64409.39
2023-09-26T06:54:10.273Z,64413.91
2023-09-26T06:55:12.533Z,64425.95
2023-09-26T06:56:15.356Z,64413.05
2023-09-26T06:57:18.291Z,64374.92
2023-09-26T06:58:20.308Z,64347.98
2023-09-26T06:59:22.486Z,64366.09
2023-09-26T07:00:25.290Z,64365.21
2023-09-26T07:01:28.533Z,64382.11
2023-09-26T07:02:31.060Z,64363.00
2023-09-26T07:03:33.489Z,64373.83
2023-09-26T07:04:35.495Z,64368.52
2023-09-26T07:05:37.491Z,64370.72
2023-09-26T07:06:42.108Z,64376.35
2023-09-26T07:07:44.214Z,64393.80
2023-09-26T07:08:46.440Z,64375.14
2023-09-26T07:09:48.368Z,64400.52
2023-09-26T07:10:51.253Z,64418.77
2023-09-26T07:11:53.249Z,64440.75
2023-09-26T07:12:55.220Z,64447.49
2023-09-26T07:14:00.177Z,64450.24
2023-09-26T07:15:03.913Z,64459.30
2023-09-26T07:16:08.097Z,64470.02
2023-09-26T07:17:10.332Z,64460.96
2023-09-26T07:18:12.700Z,64473.45
2023-09-26T07:19:14.695Z,64458.64
2023-09-26T07:20:17.325Z,64474.54
2023-09-26T07:21:19.643Z,64468.48
2023-09-26T07:22:21.941Z,64477.86
2023-09-26T07:23:24.095Z,64446.93
2023-09-26T07:24:38.538Z,64448.04
2023-09-26T07:25:31.188Z,64477.86
2023-09-26T07:26:33.763Z,64451.36
2023-09-26T07:27:35.899Z,64476.77
2023-09-26T07:28:38.367Z,64471.23
2023-09-26T07:29:40.436Z,64449.79
2023-09-26T07:30:45.043Z,64465.05
2023-09-26T07:31:47.246Z,64426.49
2023-09-26T07:32:49.576Z,64422.74
2023-09-26T07:33:52.169Z,64401.52
2023-09-26T07:34:54.494Z,64406.06
2023-09-26T07:35:56.629Z,64411.60
2023-09-26T07:36:58.909Z,64421.32
2023-09-26T07:38:01.035Z,64423.74
2023-09-26T07:39:03.434Z,64411.60
2023-09-26T07:40:07.538Z,64429.71
2023-09-26T07:41:09.695Z,64443.07
2023-09-26T07:42:12.094Z,64460.54
2023-09-26T07:43:14.160Z,64447.38
2023-09-26T07:44:16.561Z,64437.00
2023-09-26T07:45:18.955Z,64434.89
2023-09-26T07:46:21.775Z,64449.70
2023-09-26T07:47:24.764Z,64460.84
2023-09-26T07:48:29.887Z,64485.15
2023-09-26T07:49:31.869Z,64493.33
2023-09-26T07:50:34.207Z,64491.23
2023-09-26T07:51:36.337Z,64519.88
2023-09-26T07:52:38.284Z,64523.75
2023-09-26T07:53:40.376Z,64535.36
2023-09-26T07:54:42.459Z,64576.25
2023-09-26T07:55:45.313Z,64536.56
2023-09-26T07:56:47.641Z,64554.35
2023-09-26T07:57:49.779Z,64557.45
2023-09-26T07:58:51.761Z,64580.02
2023-09-26T07:59:55.497Z,64595.59
2023-09-26T08:00:58.311Z,64580.77
2023-09-26T08:02:00.802Z,64562.99
2023-09-26T08:03:03.275Z,64588.41
2023-09-26T08:04:06.709Z,64603.69
2023-09-26T08:05:09.782Z,64579.56
2023-09-26T08:06:12.225Z,64591.84
2023-09-26T08:07:14.301Z,64593.93
2023-09-26T08:08:16.851Z,64600.79
2023-09-26T08:09:19.510Z,64600.79
2023-09-26T08:10:21.688Z,64614.87
2023-09-26T08:11:24.029Z,64609.54
2023-09-26T08:12:26.158Z,64600.13
2023-09-26T08:13:28.199Z,64615.07
2023-09-26T08:14:34.020Z,64639.51
2023-09-26T08:15:36.271Z,64663.10
2023-09-26T08:16:39.540Z,64662.54
2023-09-26T08:17:41.793Z,64651.02
2023-09-26T08:18:44.021Z,64653.03
2023-09-26T08:19:46.135Z,64648.71
2023-09-26T08:20:49.498Z,64641.06
2023-09-26T08:21:51.561Z,64660.98
2023-09-26T08:22:54.004Z,64666.51
2023-09-26T08:23:57.085Z,64691.40
2023-09-26T08:24:59.023Z,64678.22
2023-09-26T08:26:03.771Z,64631.56
2023-09-26T08:27:06.511Z,64639.96
2023-09-26T08:28:09.205Z,64670.29
2023-09-26T08:29:11.197Z,64654.89
2023-09-26T08:30:13.701Z,64663.65
2023-09-26T08:31:16.418Z,64683.77
2023-09-26T08:32:18.734Z,64689.76
2023-09-26T08:33:20.822Z,64704.24
2023-09-26T08:34:23.797Z,64710.80
2023-09-26T08:35:26.002Z,64736.71
2023-09-26T08:36:28.371Z,64745.56
2023-09-26T08:37:30.514Z,64737.36
2023-09-26T08:38:32.437Z,64705.25
2023-09-26T08:39:34.534Z,64695.29
2023-09-26T08:40:38.754Z,64707.92
2023-09-26T08:41:44.175Z,64707.57
2023-09-26T08:42:46.293Z,64705.90
2023-09-26T08:43:48.350Z,64694.17
2023-09-26T08:44:52.078Z,64706.82
2023-09-26T08:45:56.797Z,64714.02
2023-09-26T08:47:00.568Z,64741.14
2023-09-26T08:48:02.868Z,64723.06
2023-09-26T08:49:05.978Z,64710.45
2023-09-26T08:50:08.428Z,64742.80
2023-09-26T08:51:10.801Z,64762.82
2023-09-26T08:52:13.279Z,64760.51
2023-09-26T08:53:16.349Z,64777.76
2023-09-26T08:54:19.038Z,64799.39
2023-09-26T08:55:21.236Z,64794.50
2023-09-26T08:56:27.025Z,64793.29
2023-09-26T08:57:31.071Z,64807.13
2023-09-26T08:58:35.346Z,64809.44
2023-09-26T08:59:37.990Z,64816.64
2023-09-26T09:00:40.477Z,64827.18
2023-09-26T09:01:42.911Z,64833.62
2023-09-26T09:02:45.216Z,64807.89
2023-09-26T09:03:47.241Z,64818.87
2023-09-26T09:04:49.470Z,64841.57
2023-09-26T09:05:51.736Z,64842.12
2023-09-26T09:07:03.691Z,64853.66
2023-09-26T09:08:07.677Z,64834.19
2023-09-26T09:09:09.958Z,64781.19
2023-09-26T09:10:14.023Z,64802.71
2023-09-26T09:11:19.899Z,64828.84
2023-09-26T09:12:22.234Z,64829.94
2023-09-26T09:13:30.086Z,64837.13
2023-09-26T09:14:35.466Z,64832.25
2023-09-26T09:15:37.700Z,64844.33
2023-09-26T09:16:43.881Z,64861.89
2023-09-26T09:17:50.700Z,64875.74
2023-09-26T09:18:53.701Z,64850.43
2023-09-26T09:19:55.900Z,64834.38
2023-09-26T09:20:59.165Z,64863.09
2023-09-26T09:23:28.150Z,64884.70
2023-09-26T09:24:33.822Z,64874.93
2023-09-26T09:25:38.119Z,64864.18
2023-09-26T09:26:41.368Z,64851.34
2023-09-26T09:27:43.410Z,64875.64
2023-09-26T09:28:46.410Z,64834.38
2023-09-26T09:29:52.083Z,64845.91
2023-09-26T09:30:55.156Z,64860.86
2023-09-26T09:31:57.293Z,64864.64
2023-09-26T09:33:02.232Z,64856.33
2023-09-26T09:34:05.537Z,64862.62
2023-09-26T09:35:12.703Z,64865.19
2023-09-26T09:36:15.174Z,64842.04
2023-09-26T09:37:20.523Z,64854.67
2023-09-26T09:38:22.805Z,64855.42
2023-09-26T09:39:25.431Z,64845.91
2023-09-26T09:40:29.233Z,64853.21
2023-09-26T09:41:32.501Z,64862.52
2023-09-26T09:42:36.901Z,64879.82
2023-09-26T09:43:39.796Z,64901.98
2023-09-26T09:44:41.913Z,64866.49
2023-09-26T09:45:47.339Z,64875.82
2023-09-26T09:46:54.374Z,64852.56
2023-09-26T09:47:57.304Z,64862.98
2023-09-26T09:49:02.361Z,64888.03
2023-09-26T09:50:06.678Z,64903.55
2023-09-26T09:51:14.107Z,64891.82
2023-09-26T09:52:19.860Z,64889.61
2023-09-26T09:53:22.518Z,64906.87
2023-09-26T09:54:27.119Z,64879.82
2023-09-26T09:55:31.841Z,64857.63
2023-09-26T09:56:35.380Z,64866.31
2023-09-26T09:57:40.397Z,64866.49
2023-09-26T09:58:45.744Z,64877.61
2023-09-26T09:59:50.269Z,64891.90
2023-09-26T10:00:53.317Z,64888.21
2023-09-26T10:01:59.174Z,64899.68
2023-09-26T10:03:03.907Z,64885.54
2023-09-26T10:04:07.243Z,64909.09
2023-09-26T10:05:10.337Z,64916.31
2023-09-26T10:06:12.583Z,64906.98
2023-09-26T10:07:15.804Z,64887.38
2023-09-26T10:08:20.934Z,64905.68
2023-09-26T10:09:23.534Z,64895.34
2023-09-26T10:10:27.130Z,64885.36
2023-09-26T10:11:30.654Z,64876.37
2023-09-26T10:12:35.284Z,64893.57
2023-09-26T10:13:38.044Z,64914.18
2023-09-26T10:14:40.177Z,64909.65
2023-09-26T10:16:13.101Z,64891.00
2023-09-26T10:17:18.152Z,64903.73
2023-09-26T10:18:20.879Z,64912.41
2023-09-26T10:19:37.659Z,64894.79
2023-09-26T10:20:49.578Z,64885.17
2023-09-26T10:21:33.255Z,64879.15
2023-09-26T10:22:35.605Z,64894.68
2023-09-26T10:23:42.627Z,64894.22
2023-09-26T10:24:52.489Z,64916.39
2023-09-26T10:25:54.673Z,64914.18
2023-09-26T10:27:06.251Z,64919.61
2023-09-26T10:28:07.078Z,64924.71
2023-09-26T10:29:15.044Z,64920.83
2023-09-26T10:30:20.613Z,64918.60
2023-09-26T10:31:22.982Z,64900.79
2023-09-26T10:32:31.660Z,64903.08
2023-09-26T10:33:39.713Z,64914.00
2023-09-26T10:35:44.220Z,64933.02
2023-09-26T10:36:47.218Z,64942.44
2023-09-26T10:37:52.287Z,64939.21
2023-09-26T10:39:05.411Z,64936.14
2023-09-26T10:40:13.568Z,64941.34
2023-09-26T10:41:16.338Z,64950.76
2023-09-26T10:44:33.086Z,64963.42
2023-09-26T10:45:35.306Z,64958.51
2023-09-26T10:46:37.836Z,64964.98
2023-09-26T10:47:40.828Z,64970.54
2023-09-26T10:48:43.118Z,64976.19
2023-09-26T10:49:45.994Z,64965.18
2023-09-26T10:50:50.862Z,64974.05
2023-09-26T10:51:53.202Z,64965.11
2023-09-26T10:52:56.219Z,64971.84
2023-09-26T10:53:59.728Z,64965.93
2023-09-26T10:55:05.492Z,64913.53
2023-09-26T10:56:08.999Z,64923.59
2023-09-26T10:57:18.966Z,64924.71
2023-09-26T10:58:21.210Z,64944.46
2023-09-26T11:00:25.413Z,64938.10
2023-09-26T11:02:40.529Z,64952.42
2023-09-26T11:03:42.897Z,64957.31
2023-09-26T11:04:45.423Z,64957.41
2023-09-26T11:06:54.258Z,64966.48
2023-09-26T11:07:56.759Z,64952.79
2023-09-26T11:08:59.173Z,64943.09
2023-09-26T11:10:03.433Z,64940.23
2023-09-26T11:11:05.350Z,64939.21
2023-09-26T11:12:07.418Z,64940.77
2023-09-26T11:13:09.830Z,64936.35
2023-09-26T11:14:12.229Z,64940.23
2023-09-26T11:16:18.742Z,64930.16
2023-09-26T11:17:20.991Z,64941.89
2023-09-26T11:18:24.773Z,64952.32
2023-09-26T11:19:28.070Z,64957.96
2023-09-26T11:20:31.114Z,64974.52
2023-09-26T11:21:33.255Z,64968.98
2023-09-26T11:22:49.297Z,64949.09
2023-09-26T11:23:51.496Z,64953.07
2023-09-26T11:25:09.637Z,64972.39
2023-09-26T11:26:12.849Z,64972.86
2023-09-26T11:27:14.997Z,64981.08
2023-09-26T11:28:17.783Z,64985.05
2023-09-26T11:29:21.064Z,64985.62
2023-09-26T11:30:23.864Z,64983.02
2023-09-26T11:31:26.414Z,64980.71
2023-09-26T11:32:28.764Z,64978.03
2023-09-26T11:33:32.093Z,64984.04
2023-09-26T11:34:37.148Z,64996.70
2023-09-26T11:35:39.763Z,64996.80
2023-09-26T11:36:42.485Z,65001.78
2023-09-26T11:37:49.936Z,65009.55
2023-09-26T11:38:53.501Z,64997.82
2023-09-26T11:39:55.729Z,65005.58
2023-09-26T11:40:59.237Z,64999.57
2023-09-26T11:42:09.037Z,65008.80
2023-09-26T11:43:11.850Z,65009.45
2023-09-26T11:44:15.721Z,65010.20
2023-09-26T11:46:49.972Z,65013.53
2023-09-26T11:47:56.874Z,65017.87
2023-09-26T11:48:59.225Z,65020.56
2023-09-26T11:50:01.487Z,65011.77
2023-09-26T11:51:03.481Z,65011.69
2023-09-26T11:52:06.284Z,65011.12
2023-09-26T11:53:09.978Z,64992.83
2023-09-26T11:54:12.211Z,64985.16
2023-09-26T11:55:18.321Z,64994.03
2023-09-26T11:56:26.342Z,65003.45
2023-09-26T11:57:34.122Z,64998.47
2023-09-26T11:58:36.469Z,65013.98
2023-09-26T11:59:41.677Z,65021.21
2023-09-26T12:00:44.203Z,65017.31
2023-09-26T12:01:46.570Z,65021.75
2023-09-26T12:02:50.451Z,65021.57
2023-09-26T12:03:52.899Z,65027.30
2023-09-26T12:04:54.995Z,65023.96
2023-09-26T12:05:58.194Z,65018.32
2023-09-26T12:07:00.565Z,65023.42
2023-09-26T12:08:05.095Z,65018.53
2023-09-26T12:09:09.668Z,65012.78
2023-09-26T12:10:11.883Z,65035.07
2023-09-26T12:11:14.578Z,65037.84
2023-09-26T12:12:16.770Z,65039.50
2023-09-26T12:13:18.684Z,65046.53
2023-09-26T12:14:20.981Z,65039.50
2023-09-26T12:15:25.224Z,65047.84
2023-09-26T12:16:27.707Z,64998.00
2023-09-26T12:17:30.719Z,65018.43
2023-09-26T12:18:32.841Z,65019.07
2023-09-26T12:19:34.857Z,65031.64
2023-09-26T12:20:39.713Z,65008.44
2023-09-26T12:21:42.055Z,64997.36
2023-09-26T12:22:44.510Z,64998.92
2023-09-26T12:23:46.834Z,64982.37
2023-09-26T12:24:49.758Z,64988.02
2023-09-26T12:25:52.274Z,64992.91
2023-09-26T12:26:54.409Z,64997.90
2023-09-26T12:27:56.328Z,65005.03
2023-09-26T12:28:58.340Z,65007.89
2023-09-26T12:30:02.948Z,65001.15
2023-09-26T12:31:05.738Z,65007.34
2023-09-26T12:32:07.736Z,65018.89